sensor_id;sensor_type;location;lat;lon;timestamp;temperature;humidity
1936;DHT22;969;49.892;10.896;2022-12-08T18:19:53;20.80;55.70
1936;DHT22;969;49.892;10.896;2022-12-08T18:22:45;20.80;55.80
1936;DHT22;969;49.892;10.896;2022-12-08T18:25:42;20.80;55.80
1936;DHT22;969;49.892;10.896;2022-12-08T18:28:51;20.80;55.80
1936;DHT22;969;49.892;10.896;2022-12-08T18:31:36;20.80;55.90
1936;DHT22;969;49.892;10.896;2022-12-08T18:34:53;20.80;55.90
1936;DHT22;969;49.892;10.896;2022-12-08T18:41:16;20.80;56.00
1936;DHT22;969;49.892;10.896;2022-12-08T18:44:13;20.80;56.00
1936;DHT22;969;49.892;10.896;2022-12-08T18:47:17;20.80;56.00
1936;DHT22;969;49.892;10.896;2022-12-08T18:49:53;20.80;56.10
1936;DHT22;969;49.892;10.896;2022-12-08T18:53:10;20.80;56.10
1936;DHT22;969;49.892;10.896;2022-12-08T18:58:25;20.80;56.10
1936;DHT22;969;49.892;10.896;2022-12-08T19:01:18;20.80;56.10
1936;DHT22;969;49.892;10.896;2022-12-08T19:25:22;20.70;56.20
1936;DHT22;969;49.892;10.896;2022-12-08T19:31:58;20.70;56.20
1936;DHT22;969;49.892;10.896;2022-12-08T19:35:34;20.70;56.20
1936;DHT22;969;49.892;10.896;2022-12-08T19:54:25;20.60;56.30
1936;DHT22;969;49.892;10.896;2022-12-08T19:57:39;20.60;56.30
1936;DHT22;969;49.892;10.896;2022-12-08T20:10:53;20.50;56.20
1936;DHT22;969;49.892;10.896;2022-12-08T20:13:59;20.50;56.20
1936;DHT22;969;49.892;10.896;2022-12-08T20:17:23;20.50;56.20
1936;DHT22;969;49.892;10.896;2022-12-08T20:20:38;20.50;56.20
1936;DHT22;969;49.892;10.896;2022-12-08T20:27:08;20.40;56.20
1936;DHT22;969;49.892;10.896;2022-12-08T20:30:40;20.40;56.30
1936;DHT22;969;49.892;10.896;2022-12-08T20:33:24;20.40;56.30
1936;DHT22;969;49.892;10.896;2022-12-08T20:39:49;20.40;56.30
1936;DHT22;969;49.892;10.896;2022-12-08T20:42:33;20.40;56.30
1936;DHT22;969;49.892;10.896;2022-12-08T20:49:00;20.40;56.30
1936;DHT22;969;49.892;10.896;2022-12-08T20:55:18;20.40;56.40
1936;DHT22;969;49.892;10.896;2022-12-08T20:57:49;20.40;56.40
1936;DHT22;969;49.892;10.896;2022-12-08T21:03:15;20.50;56.50
1936;DHT22;969;49.892;10.896;2022-12-08T21:05:56;20.50;56.50
1936;DHT22;969;49.892;10.896;2022-12-08T21:08:27;20.50;56.50
1936;DHT22;969;49.892;10.896;2022-12-08T21:11:01;20.50;56.50
1936;DHT22;969;49.892;10.896;2022-12-08T21:13:55;20.50;56.50
1936;DHT22;969;49.892;10.896;2022-12-08T21:16:24;20.50;56.50
1936;DHT22;969;49.892;10.896;2022-12-08T21:18:59;20.50;56.40
1936;DHT22;969;49.892;10.896;2022-12-08T21:21:50;20.50;56.40
1936;DHT22;969;49.892;10.896;2022-12-08T21:24:26;20.50;56.40
1936;DHT22;969;49.892;10.896;2022-12-08T21:27:18;20.50;56.40
1936;DHT22;969;49.892;10.896;2022-12-08T21:30:27;20.50;56.30
1936;DHT22;969;49.892;10.896;2022-12-08T21:33:06;20.60;56.40
1936;DHT22;969;49.892;10.896;2022-12-08T21:35:32;20.60;56.40
1936;DHT22;969;49.892;10.896;2022-12-08T21:38:18;20.50;56.30
1936;DHT22;969;49.892;10.896;2022-12-08T21:40:54;20.50;56.40
1936;DHT22;969;49.892;10.896;2022-12-08T21:43:49;20.60;56.40
1936;DHT22;969;49.892;10.896;2022-12-08T21:46:45;20.50;56.30
1936;DHT22;969;49.892;10.896;2022-12-08T21:49:34;20.50;56.30
1936;DHT22;969;49.892;10.896;2022-12-08T21:52:16;20.50;56.30
1936;DHT22;969;49.892;10.896;2022-12-08T21:54:51;20.50;56.30
1936;DHT22;969;49.892;10.896;2022-12-08T21:57:40;20.50;56.30
1936;DHT22;969;49.892;10.896;2022-12-08T22:00:14;20.50;56.30
1936;DHT22;969;49.892;10.896;2022-12-08T22:03:19;20.50;56.30
1936;DHT22;969;49.892;10.896;2022-12-08T22:06:06;20.50;56.30
1936;DHT22;969;49.892;10.896;2022-12-08T22:08:32;20.50;56.30
1936;DHT22;969;49.892;10.896;2022-12-08T22:11:03;20.50;56.30
1936;DHT22;969;49.892;10.896;2022-12-08T22:13:43;20.50;56.30
1936;DHT22;969;49.892;10.896;2022-12-08T22:16:19;20.50;56.30
1936;DHT22;969;49.892;10.896;2022-12-08T22:19:05;20.50;56.30
1936;DHT22;969;49.892;10.896;2022-12-08T22:21:30;20.50;56.30
1936;DHT22;969;49.892;10.896;2022-12-08T22:23:59;20.50;56.30
1936;DHT22;969;49.892;10.896;2022-12-08T22:26:25;20.50;56.30
1936;DHT22;969;49.892;10.896;2022-12-08T22:28:51;20.50;56.30
1936;DHT22;969;49.892;10.896;2022-12-08T22:31:19;20.50;56.30
1936;DHT22;969;49.892;10.896;2022-12-08T22:33:51;20.50;56.30
1936;DHT22;969;49.892;10.896;2022-12-08T22:36:25;20.50;56.30
1936;DHT22;969;49.892;10.896;2022-12-08T22:39:00;20.50;56.30
1936;DHT22;969;49.892;10.896;2022-12-08T22:41:28;20.50;56.30
1936;DHT22;969;49.892;10.896;2022-12-08T22:44:04;20.50;56.20
1936;DHT22;969;49.892;10.896;2022-12-08T22:46:33;20.50;56.20
1936;DHT22;969;49.892;10.896;2022-12-08T22:48:59;20.50;56.20
1936;DHT22;969;49.892;10.896;2022-12-08T22:51:47;20.50;56.30
1936;DHT22;969;49.892;10.896;2022-12-08T22:54:24;20.50;56.30
1936;DHT22;969;49.892;10.896;2022-12-08T22:56:53;20.50;56.30
1936;DHT22;969;49.892;10.896;2022-12-08T22:59:22;20.40;56.30
1936;DHT22;969;49.892;10.896;2022-12-08T23:01:52;20.40;56.30
1936;DHT22;969;49.892;10.896;2022-12-08T23:04:38;20.40;56.30
1936;DHT22;969;49.892;10.896;2022-12-08T23:07:06;20.40;56.30
1936;DHT22;969;49.892;10.896;2022-12-08T23:09:37;20.40;56.30
1936;DHT22;969;49.892;10.896;2022-12-08T23:15:29;20.40;56.30
1936;DHT22;969;49.892;10.896;2022-12-08T23:17:54;20.40;56.30
1936;DHT22;969;49.892;10.896;2022-12-08T23:20:24;20.40;56.40
1936;DHT22;969;49.892;10.896;2022-12-08T23:22:50;20.40;56.40
1936;DHT22;969;49.892;10.896;2022-12-08T23:25:18;20.40;56.40
1936;DHT22;969;49.892;10.896;2022-12-08T23:27:45;20.40;56.40
1936;DHT22;969;49.892;10.896;2022-12-08T23:30:14;20.30;56.30
1936;DHT22;969;49.892;10.896;2022-12-08T23:32:45;20.40;56.40
1936;DHT22;969;49.892;10.896;2022-12-08T23:35:14;20.30;56.30
1936;DHT22;969;49.892;10.896;2022-12-08T23:37:47;20.30;56.30
1936;DHT22;969;49.892;10.896;2022-12-08T23:40:13;20.30;56.40
1936;DHT22;969;49.892;10.896;2022-12-08T23:42:47;20.30;56.30
1936;DHT22;969;49.892;10.896;2022-12-08T23:45:29;20.30;56.40
1936;DHT22;969;49.892;10.896;2022-12-08T23:47:55;20.30;56.40
1936;DHT22;969;49.892;10.896;2022-12-08T23:50:21;20.30;56.40
1936;DHT22;969;49.892;10.896;2022-12-08T23:52:47;20.30;56.40
1936;DHT22;969;49.892;10.896;2022-12-08T23:55:13;20.30;56.40
1936;DHT22;969;49.892;10.896;2022-12-08T23:57:38;20.30;56.40
